sensor_id;sensor_type;location;lat;lon;timestamp;pressure;altitude;pressure_sealevel;temperature;humidity
17521;BME280;8878;-33.370;-70.552;2023-04-10T00:00:08;92064.84;;;23.61;33.11
17521;BME280;8878;-33.370;-70.552;2023-04-10T00:02:38;92069.00;;;23.74;33.48
17521;BME280;8878;-33.370;-70.552;2023-04-10T00:05:08;92073.03;;;23.80;33.88
17521;BME280;8878;-33.370;-70.552;2023-04-10T00:07:38;92065.13;;;23.71;33.62
17521;BME280;8878;-33.370;-70.552;2023-04-10T00:10:08;92071.44;;;23.48;34.53
17521;BME280;8878;-33.370;-70.552;2023-04-10T00:12:38;92082.94;;;23.32;34.56
17521;BME280;8878;-33.370;-70.552;2023-04-10T00:15:09;92082.88;;;23.29;33.43
17521;BME280;8878;-33.370;-70.552;2023-04-10T00:17:39;92074.88;;;23.32;33.21
17521;BME280;8878;-33.370;-70.552;2023-04-10T00:20:09;92087.72;;;23.23;33.56
17521;BME280;8878;-33.370;-70.552;2023-04-10T00:22:38;92081.00;;;23.17;33.41
17521;BME280;8878;-33.370;-70.552;2023-04-10T00:25:09;92079.97;;;23.06;33.31
17521;BME280;8878;-33.370;-70.552;2023-04-10T00:27:38;92071.09;;;23.06;33.83
17521;BME280;8878;-33.370;-70.552;2023-04-10T00:30:10;92074.97;;;22.92;34.27
17521;BME280;8878;-33.370;-70.552;2023-04-10T00:32:39;92075.13;;;22.84;34.80
17521;BME280;8878;-33.370;-70.552;2023-04-10T00:35:09;92071.81;;;22.62;36.24
17521;BME280;8878;-33.370;-70.552;2023-04-10T00:37:39;92076.78;;;22.48;36.05
17521;BME280;8878;-33.370;-70.552;2023-04-10T00:40:08;92080.03;;;22.42;35.04
17521;BME280;8878;-33.370;-70.552;2023-04-10T00:42:38;92079.09;;;22.62;34.41
17521;BME280;8878;-33.370;-70.552;2023-04-10T00:45:10;92077.72;;;22.68;34.44
17521;BME280;8878;-33.370;-70.552;2023-04-10T00:47:40;92073.13;;;22.69;35.20
17521;BME280;8878;-33.370;-70.552;2023-04-10T00:50:10;92078.22;;;22.58;34.98
17521;BME280;8878;-33.370;-70.552;2023-04-10T00:52:39;92083.06;;;22.40;36.07
17521;BME280;8878;-33.370;-70.552;2023-04-10T00:55:09;92076.91;;;22.40;35.79
17521;BME280;8878;-33.370;-70.552;2023-04-10T00:57:39;92077.22;;;22.38;35.33
17521;BME280;8878;-33.370;-70.552;2023-04-10T01:00:13;92072.88;;;22.34;34.48
17521;BME280;8878;-33.370;-70.552;2023-04-10T01:02:42;92078.25;;;22.34;33.88
17521;BME280;8878;-33.370;-70.552;2023-04-10T01:05:12;92074.91;;;22.37;34.23
17521;BME280;8878;-33.370;-70.552;2023-04-10T01:07:52;92076.69;;;22.33;34.31
17521;BME280;8878;-33.370;-70.552;2023-04-10T01:10:28;92076.81;;;22.24;34.39
17521;BME280;8878;-33.370;-70.552;2023-04-10T01:13:10;92072.38;;;22.16;34.60
17521;BME280;8878;-33.370;-70.552;2023-04-10T01:15:48;92076.97;;;22.15;34.46
17521;BME280;8878;-33.370;-70.552;2023-04-10T01:18:25;92073.91;;;22.17;33.77
17521;BME280;8878;-33.370;-70.552;2023-04-10T01:20:58;92076.19;;;22.15;33.37
17521;BME280;8878;-33.370;-70.552;2023-04-10T01:23:51;92075.94;;;21.96;33.92
17521;BME280;8878;-33.370;-70.552;2023-04-10T01:26:38;92066.75;;;21.84;33.93
17521;BME280;8878;-33.370;-70.552;2023-04-10T01:29:14;92067.56;;;21.97;33.77
17521;BME280;8878;-33.370;-70.552;2023-04-10T01:31:51;92080.00;;;22.02;34.34
17521;BME280;8878;-33.370;-70.552;2023-04-10T01:34:27;92071.94;;;22.02;34.33
17521;BME280;8878;-33.370;-70.552;2023-04-10T01:37:02;92074.50;;;21.98;34.36
17521;BME280;8878;-33.370;-70.552;2023-04-10T01:39:35;92064.97;;;21.88;34.21
17521;BME280;8878;-33.370;-70.552;2023-04-10T01:42:06;92068.78;;;21.75;33.29
17521;BME280;8878;-33.370;-70.552;2023-04-10T01:44:41;92070.34;;;21.88;33.17
17521;BME280;8878;-33.370;-70.552;2023-04-10T01:47:14;92071.34;;;21.84;33.26
17521;BME280;8878;-33.370;-70.552;2023-04-10T01:49:46;92069.34;;;21.93;33.14
17521;BME280;8878;-33.370;-70.552;2023-04-10T01:52:17;92066.97;;;21.92;32.74
17521;BME280;8878;-33.370;-70.552;2023-04-10T01:54:47;92072.81;;;21.94;32.56
17521;BME280;8878;-33.370;-70.552;2023-04-10T01:57:17;92074.50;;;21.98;32.74
17521;BME280;8878;-33.370;-70.552;2023-04-10T01:59:49;92080.09;;;21.93;33.21
17521;BME280;8878;-33.370;-70.552;2023-04-10T02:02:18;92082.19;;;21.75;33.07
17521;BME280;8878;-33.370;-70.552;2023-04-10T02:04:49;92080.16;;;21.48;33.08
17521;BME280;8878;-33.370;-70.552;2023-04-10T02:07:23;92086.31;;;21.48;33.06
17521;BME280;8878;-33.370;-70.552;2023-04-10T02:10:00;92080.50;;;21.34;33.25
17521;BME280;8878;-33.370;-70.552;2023-04-10T02:12:34;92086.34;;;21.61;32.83
17521;BME280;8878;-33.370;-70.552;2023-04-10T02:15:08;92087.25;;;21.65;33.54
17521;BME280;8878;-33.370;-70.552;2023-04-10T02:17:38;92094.06;;;21.62;34.07
17521;BME280;8878;-33.370;-70.552;2023-04-10T02:20:09;92095.28;;;21.53;34.49
17521;BME280;8878;-33.370;-70.552;2023-04-10T02:22:40;92088.44;;;21.31;34.61
17521;BME280;8878;-33.370;-70.552;2023-04-10T02:25:11;92092.09;;;21.26;34.98
17521;BME280;8878;-33.370;-70.552;2023-04-10T02:27:41;92081.69;;;21.25;35.64
17521;BME280;8878;-33.370;-70.552;2023-04-10T02:30:12;92078.31;;;21.16;35.90
17521;BME280;8878;-33.370;-70.552;2023-04-10T02:32:42;92080.75;;;21.08;36.16
17521;BME280;8878;-33.370;-70.552;2023-04-10T02:35:11;92078.50;;;21.10;35.66
17521;BME280;8878;-33.370;-70.552;2023-04-10T02:37:41;92088.66;;;21.05;36.36
17521;BME280;8878;-33.370;-70.552;2023-04-10T02:40:12;92094.59;;;21.10;35.55
17521;BME280;8878;-33.370;-70.552;2023-04-10T02:42:43;92088.34;;;21.06;35.93
17521;BME280;8878;-33.370;-70.552;2023-04-10T02:45:13;92095.84;;;21.13;35.53
17521;BME280;8878;-33.370;-70.552;2023-04-10T02:47:45;92090.47;;;21.13;35.71
17521;BME280;8878;-33.370;-70.552;2023-04-10T02:50:14;92089.44;;;21.05;35.42
17521;BME280;8878;-33.370;-70.552;2023-04-10T02:52:44;92082.88;;;21.03;35.90
17521;BME280;8878;-33.370;-70.552;2023-04-10T02:55:14;92090.38;;;21.09;35.04
17521;BME280;8878;-33.370;-70.552;2023-04-10T02:57:43;92081.44;;;21.18;34.55
17521;BME280;8878;-33.370;-70.552;2023-04-10T03:00:23;92083.16;;;21.22;34.96
17521;BME280;8878;-33.370;-70.552;2023-04-10T03:02:53;92077.56;;;21.27;34.83
17521;BME280;8878;-33.370;-70.552;2023-04-10T03:05:23;92071.00;;;21.37;33.99
17521;BME280;8878;-33.370;-70.552;2023-04-10T03:07:53;92076.13;;;21.42;34.08
17521;BME280;8878;-33.370;-70.552;2023-04-10T03:10:22;92069.66;;;21.31;34.71
17521;BME280;8878;-33.370;-70.552;2023-04-10T03:12:52;92070.31;;;21.28;34.40
17521;BME280;8878;-33.370;-70.552;2023-04-10T03:15:23;92063.81;;;21.29;34.66
17521;BME280;8878;-33.370;-70.552;2023-04-10T03:17:52;92073.59;;;21.13;35.21
17521;BME280;8878;-33.370;-70.552;2023-04-10T03:20:22;92060.78;;;20.85;35.34
17521;BME280;8878;-33.370;-70.552;2023-04-10T03:22:51;92063.22;;;20.78;34.79
17521;BME280;8878;-33.370;-70.552;2023-04-10T03:25:21;92059.38;;;20.67;35.17
17521;BME280;8878;-33.370;-70.552;2023-04-10T03:27:51;92052.81;;;20.77;34.69
17521;BME280;8878;-33.370;-70.552;2023-04-10T03:30:23;92059.66;;;20.86;36.36
17521;BME280;8878;-33.370;-70.552;2023-04-10T03:32:53;92058.00;;;20.82;35.92
17521;BME280;8878;-33.370;-70.552;2023-04-10T03:35:22;92053.13;;;20.75;36.21
17521;BME280;8878;-33.370;-70.552;2023-04-10T03:37:52;92057.47;;;20.67;36.37
17521;BME280;8878;-33.370;-70.552;2023-04-10T03:40:22;92059.97;;;20.73;35.50
17521;BME280;8878;-33.370;-70.552;2023-04-10T03:42:52;92059.63;;;20.74;34.77
17521;BME280;8878;-33.370;-70.552;2023-04-10T03:45:23;92059.50;;;20.70;35.13
17521;BME280;8878;-33.370;-70.552;2023-04-10T03:47:53;92063.97;;;20.66;35.86
17521;BME280;8878;-33.370;-70.552;2023-04-10T03:50:22;92061.56;;;20.53;35.64
17521;BME280;8878;-33.370;-70.552;2023-04-10T03:52:52;92060.41;;;20.54;34.68
17521;BME280;8878;-33.370;-70.552;2023-04-10T03:55:21;92054.66;;;20.64;36.01
17521;BME280;8878;-33.370;-70.552;2023-04-10T03:57:50;92054.03;;;20.67;36.24
17521;BME280;8878;-33.370;-70.552;2023-04-10T04:00:22;92049.16;;;20.60;36.36
17521;BME280;8878;-33.370;-70.552;2023-04-10T04:02:52;92047.22;;;20.49;36.44
17521;BME280;8878;-33.370;-70.552;2023-04-10T04:05:21;92054.03;;;20.46;36.81
17521;BME280;8878;-33.370;-70.552;2023-04-10T04:07:51;92052.81;;;20.44;36.65
17521;BME280;8878;-33.370;-70.552;2023-04-10T04:10:20;92060.13;;;20.35;36.74
17521;BME280;8878;-33.370;-70.552;2023-04-10T04:12:50;92063.63;;;20.26;37.29
17521;BME280;8878;-33.370;-70.552;2023-04-10T04:15:19;92063.22;;;20.16;37.84
17521;BME280;8878;-33.370;-70.552;2023-04-10T04:17:52;92057.19;;;20.19;38.33
17521;BME280;8878;-33.370;-70.552;2023-04-10T04:20:21;92055.97;;;20.16;39.05
17521;BME280;8878;-33.370;-70.552;2023-04-10T04:22:51;92051.59;;;20.12;39.06
17521;BME280;8878;-33.370;-70.552;2023-04-10T04:25:20;92058.03;;;20.11;38.14
17521;BME280;8878;-33.370;-70.552;2023-04-10T04:27:50;92053.16;;;20.13;37.41
17521;BME280;8878;-33.370;-70.552;2023-04-10T04:30:21;92043.03;;;20.18;37.43
17521;BME280;8878;-33.370;-70.552;2023-04-10T04:32:52;92050.78;;;20.11;38.50
17521;BME280;8878;-33.370;-70.552;2023-04-10T04:35:22;92044.75;;;20.02;39.30
17521;BME280;8878;-33.370;-70.552;2023-04-10T04:37:52;92040.34;;;19.98;39.47
17521;BME280;8878;-33.370;-70.552;2023-04-10T04:40:22;92039.28;;;19.90;39.66
17521;BME280;8878;-33.370;-70.552;2023-04-10T04:42:52;92032.88;;;19.82;38.58
17521;BME280;8878;-33.370;-70.552;2023-04-10T04:45:21;92036.81;;;19.85;38.34
17521;BME280;8878;-33.370;-70.552;2023-04-10T04:47:52;92035.22;;;19.84;37.64
17521;BME280;8878;-33.370;-70.552;2023-04-10T04:50:21;92042.09;;;19.93;37.22
17521;BME280;8878;-33.370;-70.552;2023-04-10T04:52:51;92037.13;;;20.04;36.14
17521;BME280;8878;-33.370;-70.552;2023-04-10T04:55:20;92036.25;;;20.21;35.11
17521;BME280;8878;-33.370;-70.552;2023-04-10T04:57:50;92040.16;;;20.23;36.29
17521;BME280;8878;-33.370;-70.552;2023-04-10T05:00:19;92041.59;;;20.21;37.37
17521;BME280;8878;-33.370;-70.552;2023-04-10T05:02:48;92044.16;;;20.17;37.56
17521;BME280;8878;-33.370;-70.552;2023-04-10T05:05:20;92042.59;;;20.16;37.23
17521;BME280;8878;-33.370;-70.552;2023-04-10T05:07:50;92040.72;;;20.38;37.18
17521;BME280;8878;-33.370;-70.552;2023-04-10T05:10:20;92041.81;;;20.37;37.70
17521;BME280;8878;-33.370;-70.552;2023-04-10T05:12:49;92035.00;;;20.18;37.39
17521;BME280;8878;-33.370;-70.552;2023-04-10T05:15:18;92037.84;;;19.92;37.51
17521;BME280;8878;-33.370;-70.552;2023-04-10T05:17:48;92032.75;;;19.79;38.28
17521;BME280;8878;-33.370;-70.552;2023-04-10T05:20:21;92040.34;;;19.68;38.68
17521;BME280;8878;-33.370;-70.552;2023-04-10T05:22:50;92038.38;;;19.57;38.44
17521;BME280;8878;-33.370;-70.552;2023-04-10T05:25:20;92033.97;;;19.61;38.16
17521;BME280;8878;-33.370;-70.552;2023-04-10T05:27:49;92029.44;;;19.52;38.64
17521;BME280;8878;-33.370;-70.552;2023-04-10T05:30:19;92024.09;;;19.44;39.27
17521;BME280;8878;-33.370;-70.552;2023-04-10T05:32:48;92029.63;;;19.47;38.66
17521;BME280;8878;-33.370;-70.552;2023-04-10T05:35:18;92020.47;;;19.48;38.72
17521;BME280;8878;-33.370;-70.552;2023-04-10T05:37:49;92018.13;;;19.47;39.12
17521;BME280;8878;-33.370;-70.552;2023-04-10T05:40:18;92013.88;;;19.46;38.27
17521;BME280;8878;-33.370;-70.552;2023-04-10T05:42:48;92006.31;;;19.48;38.80
17521;BME280;8878;-33.370;-70.552;2023-04-10T05:45:17;92001.44;;;19.41;39.42
17521;BME280;8878;-33.370;-70.552;2023-04-10T05:47:47;91989.84;;;19.37;39.13
17521;BME280;8878;-33.370;-70.552;2023-04-10T05:50:16;91987.28;;;19.41;38.50
17521;BME280;8878;-33.370;-70.552;2023-04-10T05:52:46;91985.53;;;19.45;38.09
17521;BME280;8878;-33.370;-70.552;2023-04-10T05:55:17;91980.50;;;19.52;38.05
17521;BME280;8878;-33.370;-70.552;2023-04-10T05:57:46;91982.66;;;19.59;36.85
17521;BME280;8878;-33.370;-70.552;2023-04-10T06:00:17;91972.75;;;19.59;36.52
17521;BME280;8878;-33.370;-70.552;2023-04-10T06:02:47;91971.50;;;19.57;36.15
17521;BME280;8878;-33.370;-70.552;2023-04-10T06:05:17;91973.34;;;19.65;36.38
17521;BME280;8878;-33.370;-70.552;2023-04-10T06:07:46;91962.75;;;19.68;36.79
17521;BME280;8878;-33.370;-70.552;2023-04-10T06:10:17;91964.75;;;19.50;37.56
17521;BME280;8878;-33.370;-70.552;2023-04-10T06:12:46;91965.47;;;19.30;37.54
17521;BME280;8878;-33.370;-70.552;2023-04-10T06:15:16;91967.88;;;19.23;37.75
17521;BME280;8878;-33.370;-70.552;2023-04-10T06:17:45;91960.06;;;19.18;37.28
17521;BME280;8878;-33.370;-70.552;2023-04-10T06:20:15;91955.88;;;19.29;37.32
17521;BME280;8878;-33.370;-70.552;2023-04-10T06:22:44;91949.78;;;19.20;38.51
17521;BME280;8878;-33.370;-70.552;2023-04-10T06:25:14;91946.59;;;19.27;38.45
17521;BME280;8878;-33.370;-70.552;2023-04-10T06:27:45;91945.09;;;19.17;38.65
17521;BME280;8878;-33.370;-70.552;2023-04-10T06:30:14;91940.59;;;19.09;38.64
17521;BME280;8878;-33.370;-70.552;2023-04-10T06:32:43;91937.25;;;19.12;38.40
17521;BME280;8878;-33.370;-70.552;2023-04-10T06:35:13;91939.78;;;19.08;39.92
17521;BME280;8878;-33.370;-70.552;2023-04-10T06:37:43;91935.28;;;19.00;40.18
17521;BME280;8878;-33.370;-70.552;2023-04-10T06:40:14;91927.13;;;18.97;40.16
17521;BME280;8878;-33.370;-70.552;2023-04-10T06:42:45;91930.28;;;18.90;40.29
17521;BME280;8878;-33.370;-70.552;2023-04-10T06:45:14;91921.84;;;18.80;40.70
17521;BME280;8878;-33.370;-70.552;2023-04-10T06:47:44;91924.50;;;18.80;40.56
17521;BME280;8878;-33.370;-70.552;2023-04-10T06:50:13;91923.72;;;18.79;40.27
17521;BME280;8878;-33.370;-70.552;2023-04-10T06:52:44;91934.69;;;18.95;38.85
17521;BME280;8878;-33.370;-70.552;2023-04-10T06:55:13;91930.13;;;18.95;38.46
17521;BME280;8878;-33.370;-70.552;2023-04-10T06:57:45;91942.50;;;19.00;38.56
17521;BME280;8878;-33.370;-70.552;2023-04-10T07:00:15;91935.97;;;18.89;39.20
17521;BME280;8878;-33.370;-70.552;2023-04-10T07:02:44;91941.03;;;18.82;40.01
17521;BME280;8878;-33.370;-70.552;2023-04-10T07:05:14;91935.84;;;18.76;40.24
17521;BME280;8878;-33.370;-70.552;2023-04-10T07:07:43;91938.94;;;18.87;39.55
17521;BME280;8878;-33.370;-70.552;2023-04-10T07:10:13;91938.16;;;18.87;39.79
17521;BME280;8878;-33.370;-70.552;2023-04-10T07:12:44;91937.38;;;18.86;39.72
17521;BME280;8878;-33.370;-70.552;2023-04-10T07:15:14;91938.94;;;18.87;39.30
17521;BME280;8878;-33.370;-70.552;2023-04-10T07:17:44;91942.41;;;18.88;39.29
17521;BME280;8878;-33.370;-70.552;2023-04-10T07:20:14;91946.28;;;18.99;39.22
17521;BME280;8878;-33.370;-70.552;2023-04-10T07:22:43;91948.66;;;18.92;39.89
17521;BME280;8878;-33.370;-70.552;2023-04-10T07:25:12;91936.59;;;18.86;40.64
17521;BME280;8878;-33.370;-70.552;2023-04-10T07:27:44;91949.28;;;18.59;41.26
17521;BME280;8878;-33.370;-70.552;2023-04-10T07:30:13;91940.78;;;18.57;40.86
17521;BME280;8878;-33.370;-70.552;2023-04-10T07:32:43;91940.94;;;18.52;40.78
17521;BME280;8878;-33.370;-70.552;2023-04-10T07:35:12;91943.63;;;18.35;41.52
17521;BME280;8878;-33.370;-70.552;2023-04-10T07:37:43;91953.34;;;18.48;40.53
17521;BME280;8878;-33.370;-70.552;2023-04-10T07:40:18;91944.50;;;18.73;39.38
17521;BME280;8878;-33.370;-70.552;2023-04-10T07:42:50;91929.28;;;18.65;38.84
17521;BME280;8878;-33.370;-70.552;2023-04-10T07:45:19;91943.72;;;18.73;38.86
17521;BME280;8878;-33.370;-70.552;2023-04-10T07:47:51;91941.81;;;18.82;38.73
17521;BME280;8878;-33.370;-70.552;2023-04-10T07:50:20;91934.56;;;18.83;39.08
17521;BME280;8878;-33.370;-70.552;2023-04-10T07:52:49;91934.28;;;18.75;39.35
17521;BME280;8878;-33.370;-70.552;2023-04-10T07:55:19;91929.88;;;18.71;39.85
17521;BME280;8878;-33.370;-70.552;2023-04-10T07:57:50;91928.81;;;18.63;39.68
17521;BME280;8878;-33.370;-70.552;2023-04-10T08:00:20;91922.81;;;18.75;37.80
17521;BME280;8878;-33.370;-70.552;2023-04-10T08:02:49;91923.69;;;18.88;37.89
17521;BME280;8878;-33.370;-70.552;2023-04-10T08:05:19;91918.81;;;18.90;38.20
17521;BME280;8878;-33.370;-70.552;2023-04-10T08:07:48;91922.19;;;19.07;37.65
17521;BME280;8878;-33.370;-70.552;2023-04-10T08:10:17;91910.53;;;18.83;37.99
17521;BME280;8878;-33.370;-70.552;2023-04-10T08:12:47;91913.19;;;18.83;38.16
17521;BME280;8878;-33.370;-70.552;2023-04-10T08:15:19;91904.78;;;18.63;38.94
17521;BME280;8878;-33.370;-70.552;2023-04-10T08:17:48;91908.72;;;18.57;39.18
17521;BME280;8878;-33.370;-70.552;2023-04-10T08:20:18;91904.75;;;18.55;38.61
17521;BME280;8878;-33.370;-70.552;2023-04-10T08:22:47;91908.38;;;18.67;38.73
17521;BME280;8878;-33.370;-70.552;2023-04-10T08:25:16;91906.81;;;18.49;38.96
17521;BME280;8878;-33.370;-70.552;2023-04-10T08:27:47;91908.41;;;18.50;38.81
17521;BME280;8878;-33.370;-70.552;2023-04-10T08:30:18;91911.06;;;18.50;38.91
17521;BME280;8878;-33.370;-70.552;2023-04-10T08:32:47;91905.16;;;18.36;39.02
17521;BME280;8878;-33.370;-70.552;2023-04-10T08:35:17;91910.34;;;18.32;39.23
17521;BME280;8878;-33.370;-70.552;2023-04-10T08:37:46;91915.09;;;18.18;39.01
17521;BME280;8878;-33.370;-70.552;2023-04-10T08:40:15;91915.53;;;18.20;39.53
17521;BME280;8878;-33.370;-70.552;2023-04-10T08:42:45;91917.47;;;18.03;39.75
17521;BME280;8878;-33.370;-70.552;2023-04-10T08:45:14;91911.03;;;18.04;40.12
17521;BME280;8878;-33.370;-70.552;2023-04-10T08:47:46;91914.31;;;18.18;39.22
17521;BME280;8878;-33.370;-70.552;2023-04-10T08:50:17;91916.19;;;18.17;39.90
17521;BME280;8878;-33.370;-70.552;2023-04-10T08:52:51;91912.25;;;18.15;40.32
17521;BME280;8878;-33.370;-70.552;2023-04-10T08:55:22;91911.94;;;18.25;40.04
17521;BME280;8878;-33.370;-70.552;2023-04-10T08:57:52;91916.13;;;18.34;40.30
17521;BME280;8878;-33.370;-70.552;2023-04-10T09:00:22;91912.34;;;18.44;39.48
17521;BME280;8878;-33.370;-70.552;2023-04-10T09:02:54;91910.28;;;18.58;38.10
17521;BME280;8878;-33.370;-70.552;2023-04-10T09:05:24;91914.06;;;18.57;37.96
17521;BME280;8878;-33.370;-70.552;2023-04-10T09:07:55;91911.53;;;18.52;39.14
17521;BME280;8878;-33.370;-70.552;2023-04-10T09:10:24;91908.09;;;18.60;39.10
17521;BME280;8878;-33.370;-70.552;2023-04-10T09:12:53;91905.09;;;18.53;38.85
17521;BME280;8878;-33.370;-70.552;2023-04-10T09:15:24;91902.44;;;18.53;38.61
17521;BME280;8878;-33.370;-70.552;2023-04-10T09:17:59;91897.53;;;18.64;37.55
17521;BME280;8878;-33.370;-70.552;2023-04-10T09:20:31;91904.28;;;18.70;38.58
17521;BME280;8878;-33.370;-70.552;2023-04-10T09:23:01;91894.84;;;18.72;38.80
17521;BME280;8878;-33.370;-70.552;2023-04-10T09:25:47;91894.38;;;18.70;37.35
17521;BME280;8878;-33.370;-70.552;2023-04-10T09:28:18;91895.47;;;18.69;36.68
17521;BME280;8878;-33.370;-70.552;2023-04-10T09:30:48;91892.56;;;18.45;38.33
17521;BME280;8878;-33.370;-70.552;2023-04-10T09:33:24;91889.47;;;18.26;39.34
17521;BME280;8878;-33.370;-70.552;2023-04-10T09:35:57;91888.84;;;18.29;39.37
17521;BME280;8878;-33.370;-70.552;2023-04-10T09:38:27;91880.19;;;18.32;38.71
17521;BME280;8878;-33.370;-70.552;2023-04-10T09:41:06;91881.59;;;18.38;38.01
17521;BME280;8878;-33.370;-70.552;2023-04-10T09:43:37;91878.91;;;18.38;37.45
17521;BME280;8878;-33.370;-70.552;2023-04-10T09:46:09;91873.19;;;18.48;37.13
17521;BME280;8878;-33.370;-70.552;2023-04-10T09:48:54;91864.69;;;18.55;36.33
17521;BME280;8878;-33.370;-70.552;2023-04-10T09:51:29;91861.56;;;18.61;35.69
17521;BME280;8878;-33.370;-70.552;2023-04-10T09:53:58;91852.09;;;18.72;36.02
17521;BME280;8878;-33.370;-70.552;2023-04-10T09:56:28;91852.44;;;18.62;36.19
17521;BME280;8878;-33.370;-70.552;2023-04-10T09:58:59;91863.13;;;18.62;36.13
17521;BME280;8878;-33.370;-70.552;2023-04-10T10:01:31;91863.69;;;18.30;36.36
17521;BME280;8878;-33.370;-70.552;2023-04-10T10:04:04;91854.31;;;18.15;36.02
17521;BME280;8878;-33.370;-70.552;2023-04-10T10:06:33;91850.19;;;18.26;35.63
17521;BME280;8878;-33.370;-70.552;2023-04-10T10:09:04;91845.63;;;18.27;35.78
17521;BME280;8878;-33.370;-70.552;2023-04-10T10:11:35;91850.97;;;18.27;35.82
17521;BME280;8878;-33.370;-70.552;2023-04-10T10:14:15;91836.50;;;18.36;35.60
17521;BME280;8878;-33.370;-70.552;2023-04-10T10:16:49;91833.31;;;18.43;35.89
17521;BME280;8878;-33.370;-70.552;2023-04-10T10:19:28;91836.31;;;18.42;36.53
17521;BME280;8878;-33.370;-70.552;2023-04-10T10:22:00;91832.47;;;18.22;36.82
17521;BME280;8878;-33.370;-70.552;2023-04-10T10:24:31;91837.19;;;18.25;36.35
17521;BME280;8878;-33.370;-70.552;2023-04-10T10:27:04;91842.34;;;18.30;36.73
17521;BME280;8878;-33.370;-70.552;2023-04-10T10:29:38;91839.03;;;18.33;36.86
17521;BME280;8878;-33.370;-70.552;2023-04-10T10:32:08;91848.06;;;18.49;37.11
17521;BME280;8878;-33.370;-70.552;2023-04-10T10:34:40;91847.63;;;18.47;37.98
17521;BME280;8878;-33.370;-70.552;2023-04-10T10:37:10;91851.34;;;18.17;38.09
17521;BME280;8878;-33.370;-70.552;2023-04-10T10:39:46;91856.75;;;18.37;37.54
17521;BME280;8878;-33.370;-70.552;2023-04-10T10:42:24;91860.47;;;18.54;37.36
17521;BME280;8878;-33.370;-70.552;2023-04-10T10:45:04;91861.19;;;18.71;36.96
17521;BME280;8878;-33.370;-70.552;2023-04-10T10:47:39;91871.81;;;18.89;35.63
17521;BME280;8878;-33.370;-70.552;2023-04-10T10:50:12;91877.94;;;18.89;37.14
17521;BME280;8878;-33.370;-70.552;2023-04-10T10:52:46;91882.00;;;18.95;36.54
17521;BME280;8878;-33.370;-70.552;2023-04-10T10:55:33;91889.53;;;18.93;36.23
17521;BME280;8878;-33.370;-70.552;2023-04-10T10:58:06;91892.41;;;18.88;37.74
17521;BME280;8878;-33.370;-70.552;2023-04-10T11:01:04;91900.78;;;18.78;37.75
17521;BME280;8878;-33.370;-70.552;2023-04-10T11:03:36;91908.31;;;18.76;37.38
17521;BME280;8878;-33.370;-70.552;2023-04-10T11:06:09;91922.25;;;18.61;37.70
17521;BME280;8878;-33.370;-70.552;2023-04-10T11:08:41;91929.59;;;18.64;37.77
17521;BME280;8878;-33.370;-70.552;2023-04-10T11:11:13;91937.63;;;18.64;37.38
17521;BME280;8878;-33.370;-70.552;2023-04-10T11:14:12;91943.44;;;18.57;37.85
17521;BME280;8878;-33.370;-70.552;2023-04-10T11:16:48;91937.47;;;18.60;38.01
17521;BME280;8878;-33.370;-70.552;2023-04-10T11:19:17;91950.03;;;18.68;38.37
17521;BME280;8878;-33.370;-70.552;2023-04-10T11:22:03;91948.59;;;18.71;38.70
17521;BME280;8878;-33.370;-70.552;2023-04-10T11:24:53;91956.19;;;18.60;39.24
17521;BME280;8878;-33.370;-70.552;2023-04-10T11:27:40;91954.00;;;18.45;39.31
17521;BME280;8878;-33.370;-70.552;2023-04-10T11:30:33;91959.94;;;18.51;40.05
17521;BME280;8878;-33.370;-70.552;2023-04-10T11:33:03;91952.72;;;18.68;39.05
17521;BME280;8878;-33.370;-70.552;2023-04-10T11:35:33;91953.63;;;18.72;39.11
17521;BME280;8878;-33.370;-70.552;2023-04-10T11:38:13;91951.44;;;18.66;39.47
17521;BME280;8878;-33.370;-70.552;2023-04-10T11:41:00;91947.47;;;18.81;38.48
17521;BME280;8878;-33.370;-70.552;2023-04-10T11:43:30;91945.69;;;18.93;38.01
17521;BME280;8878;-33.370;-70.552;2023-04-10T11:46:02;91949.56;;;19.04;37.17
17521;BME280;8878;-33.370;-70.552;2023-04-10T11:48:32;91946.00;;;18.92;36.92
17521;BME280;8878;-33.370;-70.552;2023-04-10T11:51:09;91942.22;;;18.93;36.77
17521;BME280;8878;-33.370;-70.552;2023-04-10T11:53:41;91940.84;;;18.87;37.06
17521;BME280;8878;-33.370;-70.552;2023-04-10T11:56:20;91938.16;;;18.87;37.07
17521;BME280;8878;-33.370;-70.552;2023-04-10T11:58:50;91939.94;;;18.74;37.11
17521;BME280;8878;-33.370;-70.552;2023-04-10T12:01:21;91926.44;;;18.70;36.79
17521;BME280;8878;-33.370;-70.552;2023-04-10T12:03:50;91930.50;;;18.76;36.72
17521;BME280;8878;-33.370;-70.552;2023-04-10T12:06:20;91923.66;;;18.96;36.23
17521;BME280;8878;-33.370;-70.552;2023-04-10T12:08:52;91928.31;;;19.37;35.30
17521;BME280;8878;-33.370;-70.552;2023-04-10T12:11:22;91916.94;;;19.70;34.84
17521;BME280;8878;-33.370;-70.552;2023-04-10T12:13:52;91919.78;;;20.06;34.19
17521;BME280;8878;-33.370;-70.552;2023-04-10T12:16:23;91919.09;;;20.30;33.70
17521;BME280;8878;-33.370;-70.552;2023-04-10T12:18:53;91923.34;;;20.64;33.41
17521;BME280;8878;-33.370;-70.552;2023-04-10T12:21:22;91922.78;;;20.83;33.18
17521;BME280;8878;-33.370;-70.552;2023-04-10T12:23:53;91929.84;;;20.99;32.67
17521;BME280;8878;-33.370;-70.552;2023-04-10T12:26:25;91939.63;;;21.16;32.79
17521;BME280;8878;-33.370;-70.552;2023-04-10T12:28:55;91944.19;;;21.28;33.08
17521;BME280;8878;-33.370;-70.552;2023-04-10T12:31:29;91940.63;;;21.36;32.62
17521;BME280;8878;-33.370;-70.552;2023-04-10T12:34:00;91945.88;;;21.44;32.69
17521;BME280;8878;-33.370;-70.552;2023-04-10T12:36:31;91944.84;;;21.73;31.24
17521;BME280;8878;-33.370;-70.552;2023-04-10T12:39:03;91949.78;;;22.11;30.42
17521;BME280;8878;-33.370;-70.552;2023-04-10T12:41:33;91952.38;;;21.96;30.70
17521;BME280;8878;-33.370;-70.552;2023-04-10T12:44:11;91953.31;;;21.75;31.08
17521;BME280;8878;-33.370;-70.552;2023-04-10T12:46:41;91955.78;;;21.80;31.45
17521;BME280;8878;-33.370;-70.552;2023-04-10T12:49:13;91956.44;;;22.02;31.46
17521;BME280;8878;-33.370;-70.552;2023-04-10T12:51:44;91958.63;;;21.60;32.54
17521;BME280;8878;-33.370;-70.552;2023-04-10T12:54:29;91970.59;;;21.50;33.54
17521;BME280;8878;-33.370;-70.552;2023-04-10T12:56:59;91976.06;;;21.41;32.98
17521;BME280;8878;-33.370;-70.552;2023-04-10T12:59:30;91979.84;;;21.65;32.25
17521;BME280;8878;-33.370;-70.552;2023-04-10T13:01:59;91976.38;;;21.40;32.77